Time;durP1;ratioP1;P1;durP2;ratioP2;P2;SDS_P1;SDS_P2;PMS_P1;PMS_P2;Temp;Humidity;BMP_temperature;BMP_pressure;BME280_temperature;BME280_humidity;BME280_pressure;Samples;Min_cycle;Max_cycle;Signal;HPM_P1;HPM_P2
2022/01/26 05:02:41;;;;;;;136.17;35.43;;;0.90;99.90;;;;;;4971300;28;20549;-73
2022/01/26 05:05:09;;;;;;;148.37;32.70;;;0.90;99.90;;;;;;4973045;28;20460;-73
2022/01/26 05:07:36;;;;;;;142.43;34.40;;;0.80;99.90;;;;;;4972804;28;20500;-73
2022/01/26 05:10:03;;;;;;;162.23;36.63;;;0.70;99.90;;;;;;4972838;28;20539;-73
2022/01/26 05:12:31;;;;;;;150.63;38.40;;;0.80;99.90;;;;;;4991310;28;21046;-73
2022/01/26 05:14:59;;;;;;;137.33;35.50;;;0.70;99.90;;;;;;4992913;28;20455;-72
2022/01/26 05:17:26;;;;;;;163.83;37.20;;;0.70;99.90;;;;;;4992101;28;20545;-71
2022/01/26 05:19:57;;;;;;;163.40;40.97;;;0.70;99.90;;;;;;4991856;28;20537;-72
2022/01/26 05:22:24;;;;;;;143.93;36.00;;;0.80;99.90;;;;;;4992434;28;20510;-72
2022/01/26 05:24:52;;;;;;;144.73;34.23;;;0.80;99.90;;;;;;4992257;28;20542;-72
2022/01/26 05:27:19;;;;;;;145.03;36.07;;;0.80;99.90;;;;;;4992040;28;20494;-72
2022/01/26 05:29:46;;;;;;;163.37;36.47;;;0.80;99.90;;;;;;4991647;28;20461;-72
2022/01/26 05:32:13;;;;;;;151.73;35.60;;;0.80;99.90;;;;;;4991824;28;20509;-72
2022/01/26 05:34:40;;;;;;;132.83;36.07;;;0.70;99.90;;;;;;4992072;28;20487;-72
2022/01/26 05:37:08;;;;;;;150.57;38.00;;;0.70;99.90;;;;;;4991980;28;20530;-73
2022/01/26 05:39:37;;;;;;;134.87;35.10;;;0.70;99.90;;;;;;4991860;28;20554;-73
2022/01/26 05:42:05;;;;;;;116.30;34.37;;;0.60;99.90;;;;;;4991952;28;20486;-72
2022/01/26 05:44:32;;;;;;;139.27;35.03;;;0.60;99.90;;;;;;4991734;28;20463;-72
2022/01/26 05:46:59;;;;;;;131.57;33.40;;;0.70;99.90;;;;;;4992042;28;20495;-74
2022/01/26 05:49:26;;;;;;;128.50;35.00;;;0.60;99.90;;;;;;4991730;28;20465;-72
2022/01/26 05:51:53;;;;;;;121.83;33.97;;;0.60;99.90;;;;;;4991519;28;20559;-72
2022/01/26 05:54:22;;;;;;;130.83;36.87;;;0.60;99.90;;;;;;4992000;28;20455;-72
2022/01/26 05:56:50;;;;;;;128.70;35.40;;;0.60;99.90;;;;;;4991938;28;20455;-72
2022/01/26 05:59:19;;;;;;;133.03;34.37;;;0.60;99.90;;;;;;4993986;28;20451;-72
2022/01/26 06:01:46;;;;;;;130.57;33.97;;;0.60;99.90;;;;;;5009648;28;20560;-73
2022/01/26 06:04:13;;;;;;;130.60;36.50;;;0.60;99.90;;;;;;5011363;28;20497;-71
2022/01/26 06:06:40;;;;;;;124.63;34.77;;;0.70;99.90;;;;;;5012603;28;20450;-72
2022/01/26 06:09:07;;;;;;;111.70;31.13;;;0.60;99.90;;;;;;5014941;28;20508;-73
2022/01/26 06:11:36;;;;;;;107.10;31.80;;;0.60;99.90;;;;;;5015472;28;20480;-73
2022/01/26 06:14:02;;;;;;;123.47;31.60;;;0.60;99.90;;;;;;5015097;28;20485;-73
2022/01/26 06:16:29;;;;;;;106.53;31.20;;;0.60;99.90;;;;;;5015044;28;20454;-72
2022/01/26 06:18:56;;;;;;;109.37;30.57;;;0.50;99.90;;;;;;5014841;28;20957;-72
2022/01/26 06:21:23;;;;;;;117.97;33.50;;;0.50;99.90;;;;;;5015293;28;20509;-72
2022/01/26 06:23:50;;;;;;;119.30;32.60;;;0.50;99.90;;;;;;5014994;28;20450;-72
2022/01/26 06:26:17;;;;;;;111.10;30.27;;;0.50;99.90;;;;;;5014827;28;20537;-75
2022/01/26 06:28:45;;;;;;;107.07;30.83;;;0.60;99.90;;;;;;5014751;28;20490;-73
2022/01/26 06:31:15;;;;;;;93.70;30.20;;;0.60;99.90;;;;;;5014744;28;20540;-73
2022/01/26 06:33:43;;;;;;;104.77;30.03;;;0.60;99.90;;;;;;5015031;28;20776;-73
2022/01/26 06:36:13;;;;;;;121.93;32.23;;;0.60;99.90;;;;;;5014898;28;20457;-73
2022/01/26 06:38:41;;;;;;;92.87;32.10;;;0.60;99.90;;;;;;5014333;28;20457;-75
2022/01/26 06:41:08;;;;;;;101.93;28.73;;;0.50;99.90;;;;;;5014696;28;20461;-75
2022/01/26 06:43:44;;;;;;;89.43;29.40;;;0.50;99.90;;;;;;5014460;28;20826;-73
2022/01/26 06:46:19;;;;;;;99.97;30.50;;;0.50;99.90;;;;;;5014462;28;20443;-73
2022/01/26 06:49:01;;;;;;;97.13;31.27;;;0.50;99.90;;;;;;5014502;28;20481;-74
2022/01/26 06:51:28;;;;;;;102.20;30.73;;;0.40;99.90;;;;;;5014346;28;20477;-73
2022/01/26 06:53:55;;;;;;;85.53;30.40;;;0.50;99.90;;;;;;5014329;28;20537;-73
2022/01/26 06:56:22;;;;;;;115.13;32.87;;;0.50;99.90;;;;;;5014441;28;20541;-73
2022/01/26 06:58:49;;;;;;;117.03;31.00;;;0.60;99.90;;;;;;5014049;28;20446;-74
2022/01/26 07:01:17;;;;;;;114.50;32.97;;;0.50;99.90;;;;;;5013149;28;20488;-73
2022/01/26 07:03:44;;;;;;;113.63;32.37;;;0.40;99.90;;;;;;5012979;28;20493;-75
2022/01/26 07:06:11;;;;;;;138.67;34.90;;;0.40;99.90;;;;;;5013053;28;20989;-74
2022/01/26 07:08:37;;;;;;;122.83;34.13;;;0.40;99.90;;;;;;5012798;28;20938;-75
2022/01/26 07:11:04;;;;;;;110.13;32.50;;;0.40;99.90;;;;;;5013002;28;20462;-75
2022/01/26 07:13:31;;;;;;;112.67;32.03;;;0.50;99.90;;;;;;5013305;28;20482;-74
2022/01/26 07:21:29;;;;;;;127.63;33.77;;;0.50;99.90;;;;;;5012947;28;20453;-73
2022/01/26 07:23:56;;;;;;;127.03;34.20;;;0.50;99.90;;;;;;5013717;28;20497;-73
2022/01/26 07:26:27;;;;;;;97.63;28.03;;;0.50;99.90;;;;;;5013460;28;20568;-75
2022/01/26 07:28:54;;;;;;;120.10;32.97;;;0.50;99.90;;;;;;5012241;28;21044;-74
2022/01/26 07:31:22;;;;;;;111.60;31.93;;;0.50;99.90;;;;;;5012507;28;20837;-73
2022/01/26 07:33:53;;;;;;;118.17;30.40;;;0.50;99.90;;;;;;5012933;28;20450;-74
2022/01/26 07:36:21;;;;;;;105.50;32.20;;;0.40;99.90;;;;;;5012509;28;20529;-74
2022/01/26 07:38:49;;;;;;;128.27;30.67;;;0.40;99.90;;;;;;5012261;28;20454;-76
2022/01/26 07:41:17;;;;;;;125.87;33.27;;;0.40;99.90;;;;;;5012379;28;20480;-74
2022/01/26 07:43:44;;;;;;;112.73;33.10;;;0.50;99.90;;;;;;5012354;28;20489;-74
2022/01/26 07:46:10;;;;;;;120.53;32.97;;;0.60;99.90;;;;;;5012458;28;20816;-74
2022/01/26 07:48:37;;;;;;;114.77;31.90;;;0.60;99.90;;;;;;5012103;28;21101;-75
2022/01/26 07:51:06;;;;;;;112.00;31.37;;;0.60;99.90;;;;;;5012294;28;20481;-74
2022/01/26 07:53:34;;;;;;;112.53;31.57;;;0.60;99.90;;;;;;5012095;28;20537;-74
2022/01/26 07:56:01;;;;;;;108.90;28.77;;;0.60;99.90;;;;;;5012458;28;20454;-74
2022/01/26 07:58:28;;;;;;;121.67;33.03;;;0.60;99.90;;;;;;5012529;28;20560;-74
2022/01/26 08:00:55;;;;;;;112.83;32.07;;;0.50;99.90;;;;;;5012039;28;20489;-73
2022/01/26 08:03:21;;;;;;;118.70;33.03;;;0.40;99.90;;;;;;5012472;28;20501;-74
2022/01/26 08:05:48;;;;;;;117.60;32.93;;;0.40;99.90;;;;;;5014097;28;20454;-73
2022/01/26 08:08:17;;;;;;;94.00;31.20;;;0.40;99.90;;;;;;5014675;28;20620;-73
2022/01/26 08:10:44;;;;;;;110.07;34.27;;;0.50;99.90;;;;;;5013359;28;20834;-73
2022/01/26 08:13:11;;;;;;;99.73;30.87;;;0.40;99.90;;;;;;5012333;28;20490;-73
2022/01/26 08:15:38;;;;;;;78.00;27.67;;;0.50;99.90;;;;;;5011672;28;20825;-73
2022/01/26 08:18:06;;;;;;;105.37;31.40;;;0.50;99.90;;;;;;5012842;28;20448;-73
2022/01/26 08:20:33;;;;;;;79.57;27.63;;;0.50;99.90;;;;;;5012882;28;20477;-73
2022/01/26 08:23:00;;;;;;;70.23;25.67;;;0.50;99.90;;;;;;5012553;28;20455;-73
2022/01/26 08:25:29;;;;;;;69.00;25.90;;;0.50;99.90;;;;;;5012668;28;20548;-75
2022/01/26 08:28:03;;;;;;;69.27;26.23;;;0.50;99.90;;;;;;5012854;28;20501;-73
2022/01/26 08:30:31;;;;;;;90.87;29.03;;;0.40;99.90;;;;;;5012510;28;20458;-73
2022/01/26 08:32:58;;;;;;;66.23;27.33;;;0.50;99.90;;;;;;5012757;28;20450;-73
2022/01/26 08:35:25;;;;;;;88.40;29.27;;;0.50;99.90;;;;;;5012136;28;20825;-72
2022/01/26 08:37:52;;;;;;;83.83;29.73;;;0.50;99.90;;;;;;5012229;28;20541;-74
2022/01/26 08:40:19;;;;;;;85.83;29.90;;;0.40;99.90;;;;;;5012135;28;20453;-73
2022/01/26 08:42:47;;;;;;;86.33;28.60;;;0.40;99.90;;;;;;5012326;28;20454;-74
2022/01/26 08:45:14;;;;;;;80.17;27.10;;;0.40;99.90;;;;;;5012107;28;21021;-74
2022/01/26 08:47:41;;;;;;;89.27;28.70;;;0.40;99.90;;;;;;5012015;28;20938;-73
2022/01/26 08:50:09;;;;;;;90.40;30.40;;;0.30;99.90;;;;;;5011733;28;20577;-74
2022/01/26 08:52:36;;;;;;;84.20;28.47;;;0.30;99.90;;;;;;5012774;28;20506;-76
2022/01/26 08:55:04;;;;;;;82.03;29.20;;;0.30;99.90;;;;;;5012071;28;20958;-73
2022/01/26 08:57:31;;;;;;;95.80;27.83;;;0.30;99.90;;;;;;5012148;28;20446;-73
2022/01/26 09:00:00;;;;;;;80.07;26.70;;;0.30;99.90;;;;;;5011806;28;20537;-73
2022/01/26 09:02:28;;;;;;;93.13;30.40;;;0.30;99.90;;;;;;5011591;28;20501;-73
2022/01/26 09:04:55;;;;;;;76.90;27.47;;;0.30;99.90;;;;;;5011981;28;20486;-74
2022/01/26 09:07:22;;;;;;;76.40;29.53;;;0.40;99.90;;;;;;5012126;28;20541;-73
2022/01/26 09:09:49;;;;;;;77.77;29.10;;;0.40;99.90;;;;;;5011719;28;21009;-73
2022/01/26 09:12:18;;;;;;;89.30;28.93;;;0.40;99.90;;;;;;5011832;28;20482;-73
2022/01/26 09:14:46;;;;;;;80.40;26.60;;;0.40;99.90;;;;;;5012150;28;20446;-74
2022/01/26 09:17:15;;;;;;;75.13;27.00;;;0.30;99.90;;;;;;5011759;28;20488;-75
2022/01/26 09:19:44;;;;;;;73.87;24.73;;;0.30;99.90;;;;;;5011602;28;20988;-73
2022/01/26 09:22:14;;;;;;;71.90;28.53;;;0.20;99.90;;;;;;5011857;28;20528;-76
2022/01/26 09:24:42;;;;;;;73.53;25.53;;;0.20;99.90;;;;;;5012164;28;20805;-73
2022/01/26 09:27:12;;;;;;;73.00;25.40;;;0.30;99.90;;;;;;5011709;28;20494;-73
2022/01/26 09:29:39;;;;;;;74.97;26.40;;;0.30;99.90;;;;;;5012158;28;20576;-74
2022/01/26 09:32:07;;;;;;;64.67;23.40;;;0.30;99.90;;;;;;5012296;28;20561;-74
2022/01/26 09:34:37;;;;;;;69.67;23.30;;;0.30;99.90;;;;;;5012309;28;20541;-74
2022/01/26 09:37:06;;;;;;;83.80;27.60;;;0.30;99.90;;;;;;5012286;28;20462;-74
2022/01/26 09:39:33;;;;;;;89.93;28.00;;;0.30;99.90;;;;;;5011591;28;20942;-74
2022/01/26 09:42:01;;;;;;;78.40;26.10;;;0.30;99.90;;;;;;5013643;28;20509;-76
2022/01/26 09:44:30;;;;;;;82.47;27.73;;;0.40;99.90;;;;;;5015811;28;20457;-74
2022/01/26 09:46:56;;;;;;;85.27;28.90;;;0.50;99.90;;;;;;5015882;28;20478;-74
2022/01/26 09:49:31;;;;;;;72.00;27.57;;;0.40;99.90;;;;;;5015574;28;20517;-73
2022/01/26 09:52:01;;;;;;;84.13;27.50;;;0.50;99.90;;;;;;5015485;28;20489;-73
2022/01/26 09:54:30;;;;;;;87.10;29.13;;;0.40;99.90;;;;;;5015475;28;20532;-73
2022/01/26 09:57:01;;;;;;;73.53;25.50;;;0.40;99.90;;;;;;5015605;28;20715;-74
2022/01/26 09:59:28;;;;;;;84.30;26.60;;;0.30;99.90;;;;;;5015775;28;20513;-73
2022/01/26 10:01:55;;;;;;;77.40;27.27;;;0.30;99.90;;;;;;5015413;28;20580;-73
2022/01/26 10:04:25;;;;;;;73.20;25.83;;;0.30;99.90;;;;;;5015574;28;20481;-73
2022/01/26 10:07:14;;;;;;;69.77;23.50;;;0.30;99.90;;;;;;5015061;28;20589;-73
2022/01/26 10:10:00;;;;;;;76.17;23.90;;;0.30;99.90;;;;;;5015142;28;20477;-74
2022/01/26 10:15:28;;;;;;;65.87;22.23;;;0.20;99.90;;;;;;5014096;28;20537;-73
2022/01/26 10:18:01;;;;;;;79.90;24.70;;;0.20;99.90;;;;;;5014994;28;20504;-74
2022/01/26 10:20:28;;;;;;;80.23;25.53;;;0.20;99.90;;;;;;5015000;28;20443;-73
2022/01/26 10:23:07;;;;;;;73.90;25.07;;;0.10;99.90;;;;;;5014977;28;20450;-73
2022/01/26 10:25:34;;;;;;;78.77;24.50;;;0.10;99.90;;;;;;5014916;28;20814;-72
2022/01/26 10:28:01;;;;;;;78.50;27.23;;;0.20;99.90;;;;;;5014401;28;20460;-72
2022/01/26 10:30:28;;;;;;;76.63;25.00;;;0.20;99.90;;;;;;5014498;28;20458;-73
2022/01/26 10:32:55;;;;;;;64.43;24.60;;;0.20;99.90;;;;;;5014775;28;20454;-72
2022/01/26 10:35:22;;;;;;;69.40;24.67;;;0.20;99.90;;;;;;5014436;28;20482;-73
2022/01/26 10:37:51;;;;;;;75.93;24.93;;;0.20;99.90;;;;;;5014543;28;20536;-72
2022/01/26 10:40:22;;;;;;;71.67;24.60;;;0.20;99.90;;;;;;5013824;28;20493;-73
2022/01/26 10:42:57;;;;;;;65.43;23.47;;;0.30;99.90;;;;;;5014586;28;20593;-72
2022/01/26 10:45:33;;;;;;;74.40;26.00;;;0.30;99.90;;;;;;5014410;28;20438;-74
2022/01/26 10:48:14;;;;;;;80.83;25.53;;;0.20;99.90;;;;;;5014654;28;20445;-74
2022/01/26 10:51:19;;;;;;;76.23;27.30;;;0.20;99.90;;;;;;5014197;28;21052;-72
2022/01/26 10:53:40;;;;;;;75.63;26.23;;;0.20;99.90;;;;;;5012866;28;20450;-73
2022/01/26 10:56:09;;;;;;;79.43;25.37;;;0.20;99.90;;;;;;5014548;28;20435;-73
2022/01/26 10:58:36;;;;;;;70.60;26.60;;;0.30;99.90;;;;;;5014246;28;20536;-75
2022/01/26 11:01:05;;;;;;;65.37;24.63;;;0.30;99.90;;;;;;5013938;28;20488;-73
2022/01/26 11:03:33;;;;;;;73.80;24.10;;;0.30;99.90;;;;;;5014262;28;20952;-72
2022/01/26 11:06:00;;;;;;;80.03;26.23;;;0.40;99.90;;;;;;5014370;28;20552;-72
2022/01/26 11:08:29;;;;;;;78.43;24.10;;;0.30;99.90;;;;;;5014164;28;20500;-73
2022/01/26 11:10:56;;;;;;;72.03;24.80;;;0.20;99.90;;;;;;5013724;28;20554;-73
2022/01/26 11:13:28;;;;;;;86.77;25.03;;;0.20;99.90;;;;;;5013945;28;20480;-74
2022/01/26 11:16:06;;;;;;;80.33;27.03;;;0.20;99.90;;;;;;5014167;28;20443;-75
2022/01/26 11:18:44;;;;;;;73.73;23.83;;;0.30;99.90;;;;;;5013675;28;20544;-73
2022/01/26 11:21:14;;;;;;;67.53;25.23;;;0.30;99.90;;;;;;5013614;28;20470;-74
2022/01/26 11:23:41;;;;;;;80.93;23.37;;;0.20;99.90;;;;;;5005082;28;20978;-75
2022/01/26 11:26:21;;;;;;;74.57;24.63;;;0.30;99.90;;;;;;4994332;28;20538;-74
2022/01/26 11:28:49;;;;;;;67.77;24.00;;;0.20;99.90;;;;;;4994467;28;20585;-75
2022/01/26 11:31:18;;;;;;;76.90;25.37;;;0.30;99.90;;;;;;4994551;28;20597;-74
2022/01/26 11:33:48;;;;;;;73.07;23.07;;;0.30;99.90;;;;;;4994500;28;20538;-75
2022/01/26 11:36:17;;;;;;;84.80;25.57;;;0.30;99.90;;;;;;4994284;28;20822;-75
2022/01/26 11:42:13;;;;;;;72.37;24.77;;;0.20;99.90;;;;;;4993927;28;20554;-75
2022/01/26 11:42:27;;;;;;;79.77;25.87;;;0.20;99.90;;;;;;4994316;28;20474;-75
2022/01/26 11:45:09;;;;;;;73.40;26.70;;;0.20;99.90;;;;;;4994354;28;20798;-74
2022/01/26 11:47:39;;;;;;;67.87;22.47;;;0.10;99.90;;;;;;4993896;28;20478;-75
2022/01/26 11:50:09;;;;;;;77.83;24.60;;;0.10;99.90;;;;;;4993308;28;20557;-74
2022/01/26 11:52:39;;;;;;;109.30;41.43;;;0.10;99.90;;;;;;4993542;28;20492;-74
2022/01/26 11:55:22;;;;;;;74.03;27.23;;;0.10;99.90;;;;;;4993497;28;20545;-75
2022/01/26 11:57:52;;;;;;;84.13;25.97;;;0.10;99.90;;;;;;4992450;28;20511;-74
2022/01/26 12:00:39;;;;;;;77.70;24.07;;;0.10;99.90;;;;;;4993678;28;20447;-75
2022/01/26 12:03:09;;;;;;;82.40;26.27;;;0.10;99.90;;;;;;4993055;28;20868;-76
2022/01/26 12:05:46;;;;;;;71.93;23.90;;;0.10;99.90;;;;;;4988748;28;20467;-75
2022/01/26 12:08:26;;;;;;;73.90;25.67;;;0.00;99.90;;;;;;4980189;28;20874;-75
2022/01/26 12:10:53;;;;;;;79.20;26.50;;;0.10;99.90;;;;;;4990558;28;20982;-75
2022/01/26 12:13:26;;;;;;;78.67;26.17;;;0.10;99.90;;;;;;4993009;28;20459;-75
2022/01/26 12:15:58;;;;;;;70.40;26.80;;;0.10;99.90;;;;;;4992932;28;20552;-75
2022/01/26 12:18:32;;;;;;;80.60;26.00;;;0.10;99.90;;;;;;4992956;28;20470;-75
2022/01/26 12:35:13;;;;;;;82.10;24.80;;;0.10;99.90;;;;;;4992687;28;20497;-75
2022/01/26 12:37:52;;;;;;;81.60;25.50;;;0.10;99.90;;;;;;4992866;28;20450;-75
2022/01/26 12:43:16;;;;;;;65.33;24.97;;;0.20;99.90;;;;;;4987850;28;20446;-75
2022/01/26 12:45:45;;;;;;;92.80;30.50;;;0.20;99.90;;;;;;4996949;28;20864;-75
2022/01/26 12:48:13;;;;;;;84.60;28.10;;;0.30;99.90;;;;;;5000452;28;20521;-75
2022/01/26 12:50:41;;;;;;;93.77;30.30;;;0.20;99.90;;;;;;4993130;28;21010;-75
2022/01/26 12:53:08;;;;;;;89.07;29.90;;;0.20;99.90;;;;;;5000768;28;20479;-75
2022/01/26 12:55:37;;;;;;;88.17;26.80;;;0.30;99.90;;;;;;5001552;28;20477;-76
2022/01/26 12:58:05;;;;;;;80.50;26.67;;;0.30;99.90;;;;;;4997538;28;20490;-75
2022/01/26 13:00:40;;;;;;;85.37;26.50;;;0.40;99.90;;;;;;5003246;28;20447;-74
2022/01/26 13:03:13;;;;;;;75.33;26.13;;;0.30;99.90;;;;;;4992751;28;20450;-74
2022/01/26 13:05:41;;;;;;;72.53;27.10;;;0.30;99.90;;;;;;4992005;28;20451;-75
2022/01/26 13:08:10;;;;;;;80.20;28.00;;;0.40;99.90;;;;;;4991571;28;20446;-75
2022/01/26 13:10:37;;;;;;;94.77;31.00;;;0.40;99.90;;;;;;4985309;28;20495;-75
2022/01/26 13:13:18;;;;;;;90.10;29.60;;;0.40;99.90;;;;;;4985617;28;20449;-75
2022/01/26 13:15:52;;;;;;;75.17;25.97;;;0.40;99.90;;;;;;4986561;28;20538;-75
2022/01/26 13:18:40;;;;;;;78.60;25.70;;;0.40;99.90;;;;;;4993294;28;20447;-75
2022/01/26 13:21:34;;;;;;;78.90;26.70;;;0.40;99.90;;;;;;4987712;28;20500;-75
2022/01/26 13:24:11;;;;;;;70.93;23.13;;;0.30;99.90;;;;;;4993909;28;20959;-75
2022/01/26 13:26:46;;;;;;;63.43;21.97;;;0.30;99.90;;;;;;4996000;28;20443;-75
2022/01/26 13:29:26;;;;;;;68.23;22.87;;;0.20;99.90;;;;;;4991882;28;20490;-75
2022/01/26 13:32:26;;;;;;;99.43;34.53;;;0.20;99.90;;;;;;4992080;28;20525;-75
2022/01/26 13:35:15;;;;;;;55.83;20.33;;;0.20;99.90;;;;;;4988131;28;20443;-74
2022/01/26 13:37:59;;;;;;;58.87;20.17;;;0.20;99.90;;;;;;4989754;28;20452;-75
2022/01/26 13:40:41;;;;;;;71.13;22.63;;;0.20;99.90;;;;;;4996176;28;20451;-74
2022/01/26 13:51:57;;;;;;;58.20;22.97;;;0.00;99.90;;;;;;4977480;28;20477;-75
2022/01/26 13:54:45;;;;;;;78.30;27.53;;;0.00;99.90;;;;;;4994902;28;20447;-75
2022/01/26 13:57:25;;;;;;;71.43;21.83;;;0.00;99.90;;;;;;4995573;28;20455;-75
2022/01/26 13:59:54;;;;;;;80.00;23.10;;;0.00;99.90;;;;;;4995116;28;20490;-76
2022/01/26 14:02:22;;;;;;;61.00;20.80;;;0.00;99.90;;;;;;4995093;28;20486;-76
2022/01/26 14:04:49;;;;;;;72.73;23.93;;;0.00;99.90;;;;;;4987917;28;20462;-75
2022/01/26 14:07:18;;;;;;;75.80;24.80;;;0.10;99.90;;;;;;4995801;28;20455;-75
2022/01/26 14:09:45;;;;;;;70.30;22.73;;;0.10;99.90;;;;;;4994942;28;20494;-75
2022/01/26 14:12:16;;;;;;;63.23;22.60;;;0.20;99.90;;;;;;4995198;28;20478;-76
2022/01/26 14:14:46;;;;;;;71.97;22.20;;;0.10;99.90;;;;;;4989952;28;20451;-75
2022/01/26 14:17:16;;;;;;;63.53;22.07;;;0.10;99.90;;;;;;4992593;28;20450;-75
2022/01/26 14:20:07;;;;;;;56.67;19.67;;;0.20;99.90;;;;;;4991260;28;20444;-75
2022/01/26 14:22:46;;;;;;;68.23;22.97;;;0.20;99.90;;;;;;4976115;28;20479;-75
2022/01/26 14:25:24;;;;;;;57.97;24.00;;;0.10;99.90;;;;;;4975870;28;20464;-75
2022/01/26 14:27:54;;;;;;;61.97;22.43;;;0.20;99.90;;;;;;4976047;28;20462;-75
2022/01/26 14:30:36;;;;;;;56.53;23.67;;;0.20;99.90;;;;;;4990141;28;20486;-75
2022/01/26 14:55:40;;;;;;;37.73;16.57;;;0.00;99.90;;;;;;4974934;28;20542;-75
2022/01/26 15:09:46;;;;;;;55.13;29.63;;;0.10;99.90;;;;;;4951435;28;20998;-75
2022/01/26 15:40:18;;;;;;;30.43;15.90;;;0.20;99.90;;;;;;4972831;28;20427;-75
2022/01/26 15:42:58;;;;;;;35.20;14.87;;;0.20;99.90;;;;;;4973610;28;20464;-75
2022/01/26 15:50:59;;;;;;;29.37;15.90;;;0.20;99.90;;;;;;4972779;28;20498;-75
2022/01/26 15:59:05;;;;;;;34.03;17.30;;;0.10;99.90;;;;;;4972989;28;21032;-75
2022/01/26 16:04:26;;;;;;;34.37;16.40;;;0.10;99.90;;;;;;4973065;28;21036;-73
2022/01/26 16:07:12;;;;;;;37.87;18.10;;;0.10;99.90;;;;;;4974927;28;20479;-73
2022/01/26 16:12:53;;;;;;;34.47;17.70;;;0.10;99.90;;;;;;4992282;28;21063;-71
2022/01/26 16:21:10;;;;;;;39.63;17.27;;;0.20;99.90;;;;;;4949335;28;20468;-72
2022/01/26 17:24:32;;;;;;;39.80;18.50;;;0.20;99.90;;;;;;4991627;28;20521;-74
2022/01/26 17:46:45;;;;;;;35.97;17.30;;;0.00;99.90;;;;;;4991225;28;20443;-73
2022/01/26 18:17:19;;;;;;;56.30;23.10;;;-0.10;99.90;;;;;;4985982;28;20447;-75
2022/01/26 18:40:14;;;;;;;45.63;20.60;;;-0.10;99.90;;;;;;4977944;28;21030;-74
2022/01/26 18:50:49;;;;;;;51.73;21.80;;;-0.10;99.90;;;;;;4975288;28;20494;-74
2022/01/26 18:53:16;;;;;;;51.27;23.00;;;-0.10;99.90;;;;;;4974633;28;20552;-74
2022/01/26 18:55:43;;;;;;;48.93;22.60;;;-0.10;99.90;;;;;;4975307;28;20546;-76
2022/01/26 18:58:10;;;;;;;54.77;25.07;;;-0.10;99.90;;;;;;4975226;28;21018;-74
2022/01/26 19:00:38;;;;;;;45.23;20.27;;;-0.10;99.90;;;;;;4974993;28;20660;-75
2022/01/26 19:03:06;;;;;;;47.80;21.37;;;0.00;99.90;;;;;;4974172;28;20567;-74
2022/01/26 19:05:33;;;;;;;61.20;24.87;;;-0.10;99.90;;;;;;4974831;28;20892;-74
2022/01/26 19:08:00;;;;;;;47.33;19.80;;;-0.10;99.90;;;;;;4974400;28;20514;-74
2022/01/26 19:10:27;;;;;;;50.37;21.53;;;-0.10;99.90;;;;;;4973522;28;20495;-74
2022/01/26 19:12:54;;;;;;;50.77;22.20;;;-0.10;99.90;;;;;;4973809;28;20460;-74
2022/01/26 19:15:25;;;;;;;52.50;23.23;;;-0.10;99.90;;;;;;4972950;28;20556;-75
2022/01/26 19:17:57;;;;;;;52.10;21.60;;;-0.10;99.90;;;;;;4974030;28;20496;-75
2022/01/26 19:20:43;;;;;;;52.77;23.23;;;-0.10;99.90;;;;;;4976426;28;20572;-74
2022/01/26 19:25:55;;;;;;;145.00;43.27;;;-0.10;99.90;;;;;;4973811;28;20461;-74
2022/01/26 19:28:26;;;;;;;44.90;20.43;;;0.00;99.90;;;;;;4981430;28;20539;-75
2022/01/26 19:44:51;;;;;;;38.20;15.90;;;-0.20;99.90;;;;;;4992807;28;20457;-75
2022/01/26 19:50:42;;;;;;;34.13;16.10;;;-0.20;99.90;;;;;;4992827;28;20485;-75
2022/01/26 19:53:04;;;;;;;37.60;14.53;;;-0.20;99.90;;;;;;4992542;28;20439;-75
2022/01/26 19:55:31;;;;;;;38.83;17.47;;;-0.30;99.90;;;;;;4992586;28;20443;-75
2022/01/26 19:57:59;;;;;;;34.67;15.73;;;-0.30;99.90;;;;;;4992666;28;20455;-75
2022/01/26 20:00:26;;;;;;;41.07;19.23;;;-0.20;99.90;;;;;;4992228;28;20521;-75
2022/01/26 20:02:54;;;;;;;35.77;15.43;;;-0.30;99.90;;;;;;4989139;28;20546;-76
2022/01/26 20:05:21;;;;;;;33.53;16.17;;;-0.30;99.90;;;;;;4991845;28;20957;-74
2022/01/26 20:07:53;;;;;;;34.90;14.10;;;-0.20;99.90;;;;;;4992341;28;20654;-74
2022/01/26 20:10:26;;;;;;;29.83;13.83;;;-0.30;99.90;;;;;;4991936;28;20641;-74
2022/01/26 20:13:01;;;;;;;33.47;16.23;;;-0.20;99.90;;;;;;4992273;28;20455;-74
2022/01/26 20:15:28;;;;;;;30.87;14.13;;;-0.20;99.90;;;;;;4988977;28;20546;-74
2022/01/26 20:17:55;;;;;;;34.60;15.00;;;-0.20;99.90;;;;;;4991778;28;20884;-76
2022/01/26 20:20:24;;;;;;;34.07;16.07;;;-0.10;99.90;;;;;;4988836;28;20542;-74
2022/01/26 20:22:51;;;;;;;42.60;16.97;;;-0.10;99.90;;;;;;4992248;28;20534;-73
2022/01/26 20:25:19;;;;;;;29.50;14.67;;;-0.10;99.90;;;;;;4991969;28;20522;-74
2022/01/26 20:27:47;;;;;;;32.73;14.63;;;-0.10;99.90;;;;;;4992051;28;21026;-73
2022/01/26 20:30:17;;;;;;;32.20;14.40;;;0.00;99.90;;;;;;4992064;28;20469;-74
2022/01/26 20:32:46;;;;;;;33.13;15.30;;;-0.10;99.90;;;;;;4992549;28;20450;-74
2022/01/26 20:35:15;;;;;;;39.60;15.03;;;-0.10;99.90;;;;;;4992168;28;20830;-73
2022/01/26 20:37:42;;;;;;;42.50;15.93;;;-0.20;99.90;;;;;;4991876;28;20443;-74
2022/01/26 20:40:10;;;;;;;37.30;17.33;;;-0.10;99.90;;;;;;4992812;28;20525;-74
2022/01/26 20:42:38;;;;;;;35.03;15.37;;;-0.10;99.90;;;;;;4992543;28;20562;-74
2022/01/26 20:45:08;;;;;;;35.30;15.50;;;-0.10;99.90;;;;;;4992807;28;20455;-74
2022/01/26 20:47:37;;;;;;;35.33;16.90;;;-0.20;99.90;;;;;;4992875;28;20550;-74
2022/01/26 20:50:05;;;;;;;36.77;16.90;;;-0.20;99.90;;;;;;4984251;28;20439;-76
2022/01/26 20:52:34;;;;;;;43.40;17.60;;;-0.20;99.90;;;;;;4990607;28;20901;-74
2022/01/26 20:55:01;;;;;;;39.53;16.40;;;-0.20;99.90;;;;;;4992358;28;20459;-74
2022/01/26 20:57:29;;;;;;;43.90;17.03;;;-0.20;99.90;;;;;;4992056;28;20517;-74
2022/01/26 20:59:56;;;;;;;43.63;17.03;;;-0.20;99.90;;;;;;4990595;28;20451;-74
2022/01/26 21:02:24;;;;;;;42.07;17.13;;;-0.20;99.90;;;;;;4992439;28;20471;-74
2022/01/26 21:04:52;;;;;;;41.50;18.20;;;-0.30;99.90;;;;;;5001156;28;20525;-74
2022/01/26 21:07:19;;;;;;;37.43;18.17;;;-0.30;99.90;;;;;;5002073;28;20478;-75
2022/01/26 21:09:46;;;;;;;42.63;19.00;;;-0.30;99.90;;;;;;4995974;28;20529;-74
2022/01/26 21:12:12;;;;;;;39.33;18.67;;;-0.30;99.90;;;;;;4982501;28;20542;-74
2022/01/26 21:14:39;;;;;;;40.33;18.47;;;-0.30;99.90;;;;;;4987493;28;20483;-74
2022/01/26 21:17:06;;;;;;;42.27;17.90;;;-0.30;99.90;;;;;;4997747;28;20479;-74
2022/01/26 21:19:35;;;;;;;39.17;16.60;;;-0.30;99.90;;;;;;5006696;28;20472;-74
2022/01/26 21:22:04;;;;;;;44.17;17.80;;;-0.30;99.90;;;;;;5006028;28;20553;-74
2022/01/26 21:24:31;;;;;;;35.67;17.10;;;-0.30;99.90;;;;;;5010017;28;20506;-74
2022/01/26 21:26:59;;;;;;;40.73;16.60;;;-0.30;99.90;;;;;;5010609;28;20450;-74
2022/01/26 21:29:26;;;;;;;38.83;17.10;;;-0.30;99.90;;;;;;5010887;28;20985;-74
2022/01/26 21:31:53;;;;;;;32.87;16.33;;;-0.20;99.90;;;;;;5009765;28;20495;-74
2022/01/26 21:34:20;;;;;;;32.60;16.23;;;-0.30;99.90;;;;;;4994751;28;20458;-74
2022/01/26 21:36:48;;;;;;;42.20;16.50;;;-0.20;99.90;;;;;;4991602;28;20443;-74
2022/01/26 21:39:15;;;;;;;30.30;14.67;;;-0.20;99.90;;;;;;4997796;28;20481;-74
2022/01/26 21:41:42;;;;;;;35.50;16.87;;;-0.20;99.90;;;;;;4997652;28;20475;-74
2022/01/26 21:44:09;;;;;;;33.93;15.77;;;-0.20;99.90;;;;;;4997532;28;20953;-74
2022/01/26 21:46:38;;;;;;;41.37;17.03;;;-0.20;99.90;;;;;;4997427;28;20454;-74
2022/01/26 21:49:05;;;;;;;35.20;15.93;;;-0.20;99.90;;;;;;4997267;28;20462;-74
2022/01/26 21:51:32;;;;;;;34.43;14.27;;;-0.20;99.90;;;;;;4997097;28;20581;-74
2022/01/26 21:54:00;;;;;;;34.10;15.50;;;-0.20;99.90;;;;;;4997471;28;20474;-74
2022/01/26 21:56:27;;;;;;;39.93;17.20;;;-0.30;99.90;;;;;;4997289;28;20489;-74
2022/01/26 21:58:54;;;;;;;40.10;16.37;;;-0.40;99.90;;;;;;4996796;28;20494;-74
2022/01/26 22:01:21;;;;;;;39.53;18.90;;;-0.40;99.90;;;;;;4997640;28;20475;-74
2022/01/26 22:03:49;;;;;;;40.13;17.40;;;-0.40;99.90;;;;;;4997358;28;20459;-74
2022/01/26 22:06:16;;;;;;;36.70;16.80;;;-0.30;99.90;;;;;;4997805;28;20451;-73
2022/01/26 22:08:44;;;;;;;36.60;17.33;;;-0.30;99.90;;;;;;4997503;28;20541;-74
2022/01/26 22:11:12;;;;;;;37.60;16.80;;;-0.30;99.90;;;;;;4997423;28;20929;-74
2022/01/26 22:13:39;;;;;;;43.47;17.10;;;-0.30;99.90;;;;;;4997194;28;20451;-74
2022/01/26 22:16:06;;;;;;;39.63;18.10;;;-0.30;99.90;;;;;;4996651;28;20516;-74
2022/01/26 22:18:33;;;;;;;37.90;17.37;;;-0.30;99.90;;;;;;4996573;28;20497;-74
2022/01/26 22:21:00;;;;;;;38.33;18.50;;;-0.30;99.90;;;;;;4996514;28;20558;-74
2022/01/26 22:23:27;;;;;;;40.07;17.20;;;-0.30;99.90;;;;;;4996579;28;20487;-74
2022/01/26 22:25:54;;;;;;;37.80;16.20;;;-0.40;99.90;;;;;;4996512;28;20890;-74